createdAt,value
2023-04-15T00:02:00.237Z,94240.38
2023-04-15T00:04:27.796Z,94232.97
2023-04-15T00:06:54.893Z,94238.19
2023-04-15T00:09:21.863Z,94231.47
2023-04-15T00:11:48.513Z,94232.19
2023-04-15T00:14:15.583Z,94231.88
2023-04-15T00:16:42.158Z,94229.97
2023-04-15T00:19:08.810Z,94230.00
2023-04-15T00:21:35.824Z,94230.06
2023-04-15T00:24:02.460Z,94222.47
2023-04-15T00:26:29.092Z,94230.41
2023-04-15T00:28:55.662Z,94220.97
2023-04-15T00:31:23.210Z,94227.78
2023-04-15T00:33:49.953Z,94225.56
2023-04-15T00:36:16.484Z,94227.47
2023-04-15T00:38:42.981Z,94230.88
2023-04-15T00:41:10.809Z,94215.47
2023-04-15T00:43:37.418Z,94211.88
2023-04-15T00:46:06.120Z,94217.19
2023-04-15T00:48:32.836Z,94216.56
2023-04-15T00:50:59.726Z,94210.09
2023-04-15T00:53:26.492Z,94220.13
2023-04-15T00:55:53.999Z,94217.50
2023-04-15T00:58:20.608Z,94223.78
2023-04-15T01:00:47.953Z,94221.09
2023-04-15T01:03:15.632Z,94224.50
2023-04-15T01:05:42.388Z,94214.34
2023-04-15T01:08:09.792Z,94221.63
2023-04-15T01:10:36.712Z,94215.28
2023-04-15T01:13:04.021Z,94216.09
2023-04-15T01:15:31.509Z,94210.88
2023-04-15T01:17:59.623Z,94216.91
2023-04-15T01:20:26.332Z,94211.53
2023-04-15T01:22:54.974Z,94219.06
2023-04-15T01:25:33.007Z,94206.69
2023-04-15T01:27:59.932Z,94210.50
2023-04-15T01:30:29.942Z,94204.41
2023-04-15T01:32:56.684Z,94202.63
2023-04-15T01:35:24.018Z,94201.91
2023-04-15T01:37:51.291Z,94191.56
2023-04-15T01:40:17.832Z,94205.50
2023-04-15T01:42:44.566Z,94213.31
2023-04-15T01:45:11.484Z,94206.41
2023-04-15T01:47:38.105Z,94208.94
2023-04-15T01:50:05.158Z,94209.25
2023-04-15T01:52:32.249Z,94211.00
2023-04-15T01:54:58.863Z,94216.44
2023-04-15T01:57:25.383Z,94204.44
2023-04-15T01:59:52.095Z,94211.16
2023-04-15T02:02:18.717Z,94207.47
2023-04-15T02:04:45.507Z,94214.72
2023-04-15T02:07:12.205Z,94207.09
2023-04-15T02:09:39.248Z,94207.56
2023-04-15T02:12:06.205Z,94204.88
2023-04-15T02:14:32.698Z,94203.69
2023-04-15T02:17:07.076Z,94202.94
2023-04-15T02:19:34.525Z,94211.75
2023-04-15T02:22:02.185Z,94198.38
2023-04-15T02:24:30.601Z,94198.72
2023-04-15T02:26:57.404Z,94204.16
2023-04-15T02:29:24.058Z,94206.06
2023-04-15T02:31:51.164Z,94206.81
2023-04-15T02:34:17.903Z,94206.22
2023-04-15T02:36:44.535Z,94210.03
2023-04-15T02:39:12.813Z,94217.81
2023-04-15T02:41:39.676Z,94213.66
2023-04-15T02:44:07.311Z,94208.69
2023-04-15T02:46:33.902Z,94212.47
2023-04-15T02:49:00.662Z,94205.41
2023-04-15T02:51:33.909Z,94216.59
2023-04-15T02:54:01.598Z,94208.34
2023-04-15T02:56:28.144Z,94209.59
2023-04-15T02:58:56.408Z,94211.06
2023-04-15T03:01:23.043Z,94211.16
2023-04-15T03:04:49.336Z,94211.88
2023-04-15T03:07:15.976Z,94212.72
2023-04-15T03:09:42.848Z,94207.34
2023-04-15T03:12:09.401Z,94205.13
2023-04-15T03:14:36.012Z,94208.00
2023-04-15T03:17:02.658Z,94197.97
2023-04-15T03:19:29.195Z,94206.28
2023-04-15T03:21:55.998Z,94209.63
2023-04-15T03:24:22.681Z,94214.66
2023-04-15T03:26:49.240Z,94206.59
2023-04-15T03:29:15.876Z,94213.34
2023-04-15T03:31:42.550Z,94209.63
2023-04-15T03:34:09.057Z,94208.78
2023-04-15T03:36:35.652Z,94205.91
2023-04-15T03:39:02.515Z,94197.41
2023-04-15T03:41:29.247Z,94206.38
2023-04-15T03:43:55.840Z,94204.97
2023-04-15T03:46:22.425Z,94202.03
2023-04-15T03:48:49.051Z,94205.88
2023-04-15T03:51:15.708Z,94211.03
2023-04-15T03:53:42.409Z,94207.50
2023-04-15T03:56:08.960Z,94203.72
2023-04-15T03:58:35.904Z,94214.22
2023-04-15T04:01:02.540Z,94212.75
2023-04-15T04:03:29.223Z,94211.97
2023-04-15T04:05:56.338Z,94213.47
2023-04-15T04:08:22.885Z,94223.16
2023-04-15T04:10:49.526Z,94213.63
2023-04-15T04:13:16.424Z,94215.09
2023-04-15T04:15:42.962Z,94220.78
2023-04-15T04:18:09.712Z,94218.38
2023-04-15T04:20:36.422Z,94223.00
2023-04-15T04:23:03.060Z,94227.28
2023-04-15T04:25:29.776Z,94221.75
2023-04-15T04:27:56.455Z,94222.59
2023-04-15T04:30:23.233Z,94220.97
2023-04-15T04:32:51.124Z,94217.06
2023-04-15T04:35:17.722Z,94216.66
2023-04-15T04:37:44.257Z,94223.03
2023-04-15T04:40:11.400Z,94227.59
2023-04-15T04:42:39.844Z,94215.59
2023-04-15T04:45:07.459Z,94222.94
2023-04-15T04:47:34.082Z,94218.47
2023-04-15T04:50:00.877Z,94229.47
2023-04-15T04:52:27.484Z,94223.88
2023-04-15T04:54:54.172Z,94222.78
2023-04-15T04:57:20.879Z,94226.88
2023-04-15T04:59:47.611Z,94229.09
2023-04-15T05:02:14.261Z,94224.31
2023-04-15T05:04:41.870Z,94222.03
2023-04-15T05:07:08.575Z,94222.41
2023-04-15T05:09:36.707Z,94232.66
2023-04-15T05:12:06.306Z,94226.03
2023-04-15T05:14:33.314Z,94229.56
2023-04-15T05:16:59.866Z,94226.44
2023-04-15T05:19:26.494Z,94222.91
2023-04-15T05:21:53.187Z,94230.44
2023-04-15T05:24:19.808Z,94227.44
2023-04-15T05:26:46.450Z,94221.53
2023-04-15T05:29:13.060Z,94217.88
2023-04-15T05:31:39.690Z,94231.88
2023-04-15T05:34:07.197Z,94220.38
2023-04-15T05:36:33.727Z,94229.56
2023-04-15T05:39:00.976Z,94234.41
2023-04-15T05:41:27.831Z,94224.13
2023-04-15T05:43:54.382Z,94224.97
2023-04-15T05:46:21.279Z,94229.09
2023-04-15T05:48:47.869Z,94226.13
2023-04-15T05:51:14.750Z,94219.88
2023-04-15T05:53:41.885Z,94204.56
2023-04-15T05:56:08.505Z,94224.59
2023-04-15T05:58:35.071Z,94220.97
2023-04-15T06:01:02.548Z,94221.75
2023-04-15T06:03:29.654Z,94222.44
2023-04-15T06:05:56.508Z,94229.06
2023-04-15T06:08:22.987Z,94228.84
2023-04-15T06:10:49.525Z,94228.44
2023-04-15T06:13:17.114Z,94222.56
2023-04-15T06:15:43.922Z,94224.13
2023-04-15T06:18:11.696Z,94223.22
2023-04-15T06:20:38.728Z,94221.34
2023-04-15T06:23:05.397Z,94229.16
2023-04-15T06:25:31.925Z,94227.25
2023-04-15T06:27:58.436Z,94223.50
2023-04-15T06:30:24.940Z,94217.97
2023-04-15T06:32:51.767Z,94215.81
2023-04-15T06:35:18.492Z,94216.53
2023-04-15T06:37:45.042Z,94225.38
2023-04-15T06:40:12.007Z,94221.09
2023-04-15T06:42:38.542Z,94217.63
2023-04-15T06:45:05.706Z,94214.00
2023-04-15T06:47:32.423Z,94221.13
2023-04-15T06:49:59.066Z,94217.28
2023-04-15T06:52:25.593Z,94219.97
2023-04-15T06:54:52.134Z,94217.69
2023-04-15T06:57:18.679Z,94233.06
2023-04-15T06:59:45.466Z,94223.25
2023-04-15T07:02:14.488Z,94215.66
2023-04-15T07:04:41.146Z,94212.25
2023-04-15T07:07:08.117Z,94226.63
2023-04-15T07:09:34.702Z,94226.88
2023-04-15T07:12:01.255Z,94224.13
2023-04-15T07:14:28.010Z,94225.47
2023-04-15T07:16:54.726Z,94214.50
2023-04-15T07:19:21.925Z,94220.25
2023-04-15T07:21:48.496Z,94221.31
2023-04-15T07:24:18.215Z,94218.81
2023-04-15T07:26:45.195Z,94217.69
2023-04-15T07:29:12.039Z,94220.03
2023-04-15T07:31:40.074Z,94218.75
2023-04-15T07:34:07.256Z,94219.38
2023-04-15T07:36:33.825Z,94212.75
2023-04-15T07:39:02.335Z,94217.16
2023-04-15T07:41:30.640Z,94223.34
2023-04-15T07:43:57.294Z,94230.97
2023-04-15T07:46:27.514Z,94219.34
2023-04-15T07:48:54.493Z,94228.47
2023-04-15T07:51:21.357Z,94218.88
2023-04-15T07:53:50.464Z,94233.00
2023-04-15T07:56:17.184Z,94219.03
2023-04-15T07:58:43.709Z,94230.44
2023-04-15T08:01:10.287Z,94228.38
2023-04-15T08:03:37.209Z,94228.03
2023-04-15T08:06:04.047Z,94225.28
2023-04-15T08:08:35.437Z,94227.31
2023-04-15T08:11:02.200Z,94232.22
2023-04-15T08:13:28.858Z,94242.13
2023-04-15T08:16:14.345Z,94231.44
2023-04-15T08:18:42.248Z,94231.56
2023-04-15T08:21:09.442Z,94233.84
2023-04-15T08:23:36.252Z,94230.19
2023-04-15T08:26:02.886Z,94224.69
2023-04-15T08:28:29.743Z,94226.06
2023-04-15T08:30:56.691Z,94236.66
2023-04-15T08:33:25.906Z,94228.41
2023-04-15T08:35:52.939Z,94235.91
2023-04-15T08:38:19.579Z,94237.88
2023-04-15T08:40:46.735Z,94247.03
2023-04-15T08:43:22.692Z,94243.28
2023-04-15T08:45:52.654Z,94243.28
2023-04-15T08:48:19.657Z,94245.81
2023-04-15T08:50:48.036Z,94247.75
2023-04-15T08:53:15.632Z,94252.84
2023-04-15T08:55:47.672Z,94253.91
2023-04-15T08:58:19.153Z,94248.22
2023-04-15T09:00:46.009Z,94252.09
2023-04-15T09:03:12.808Z,94259.34
2023-04-15T09:05:39.396Z,94246.78
2023-04-15T09:08:06.040Z,94251.69
2023-04-15T09:10:38.616Z,94252.66
2023-04-15T09:13:05.241Z,94246.38
2023-04-15T09:15:33.215Z,94250.66
2023-04-15T09:17:59.744Z,94266.56
2023-04-15T09:20:26.457Z,94265.97
2023-04-15T09:23:07.604Z,94273.22
2023-04-15T09:25:35.047Z,94268.34
2023-04-15T09:28:02.392Z,94289.88
2023-04-15T09:30:29.652Z,94269.63
2023-04-15T09:33:01.719Z,94286.84
2023-04-15T09:35:28.976Z,94269.84
2023-04-15T09:38:04.299Z,94270.75
2023-04-15T09:40:36.416Z,94278.91
2023-04-15T09:43:15.166Z,94288.34
2023-04-15T09:45:52.498Z,94270.19
2023-04-15T09:48:29.070Z,94296.38
2023-04-15T09:50:58.881Z,94292.44
2023-04-15T09:53:26.671Z,94290.19
2023-04-15T09:55:55.919Z,94300.13
2023-04-15T09:58:24.649Z,94294.50
2023-04-15T10:00:52.911Z,94298.59
2023-04-15T10:03:22.076Z,94290.81
2023-04-15T10:05:50.876Z,94289.44
2023-04-15T10:08:22.469Z,94303.03
2023-04-15T10:10:49.675Z,94303.19
2023-04-15T10:13:19.668Z,94301.53
2023-04-15T10:15:56.885Z,94310.28
2023-04-15T10:18:26.515Z,94313.13
2023-04-15T10:20:54.036Z,94305.34
2023-04-15T10:23:22.760Z,94320.16
2023-04-15T10:25:51.029Z,94313.91
2023-04-15T10:28:17.872Z,94333.16
2023-04-15T10:30:44.770Z,94335.59
2023-04-15T10:33:11.764Z,94332.38
2023-04-15T10:35:39.735Z,94335.50
2023-04-15T10:38:40.995Z,94347.84
2023-04-15T10:41:34.621Z,94341.59
2023-04-15T10:44:07.850Z,94344.50
2023-04-15T10:47:04.548Z,94352.44
2023-04-15T10:49:31.260Z,94345.66
2023-04-15T10:52:00.004Z,94352.19
2023-04-15T10:54:26.553Z,94348.69
2023-04-15T10:57:09.828Z,94349.69
2023-04-15T10:59:58.324Z,94356.13
2023-04-15T11:02:44.155Z,94354.31
2023-04-15T11:05:12.566Z,94354.84
2023-04-15T11:07:53.280Z,94351.13
2023-04-15T11:10:26.335Z,94366.97
2023-04-15T11:13:04.743Z,94365.06
2023-04-15T11:15:43.063Z,94369.16
2023-04-15T11:18:09.607Z,94375.03
2023-04-15T11:20:37.352Z,94368.09
2023-04-15T11:23:08.169Z,94374.34
2023-04-15T11:25:44.432Z,94377.53
2023-04-15T11:28:12.541Z,94377.59
2023-04-15T11:30:40.026Z,94380.44
2023-04-15T11:33:09.194Z,94381.63
2023-04-15T11:35:36.284Z,94378.47
2023-04-15T11:38:16.811Z,94386.88
2023-04-15T11:40:46.764Z,94386.88
2023-04-15T11:43:20.538Z,94381.34
2023-04-15T11:45:51.515Z,94376.81
2023-04-15T11:48:22.162Z,94380.59
2023-04-15T11:50:56.587Z,94397.13
2023-04-15T11:53:24.180Z,94404.44
2023-04-15T11:55:57.549Z,94403.41
2023-04-15T11:58:28.474Z,94401.94
2023-04-15T12:00:57.972Z,94415.38
2023-04-15T12:03:42.507Z,94415.13
2023-04-15T12:06:24.746Z,94409.72
2023-04-15T12:08:53.285Z,94420.25
2023-04-15T12:11:26.442Z,94421.81
2023-04-15T12:13:58.718Z,94426.88
2023-04-15T12:16:35.250Z,94429.88
2023-04-15T12:19:25.958Z,94439.25
2023-04-15T12:22:09.442Z,94430.22
2023-04-15T12:24:37.891Z,94438.94
2023-04-15T12:27:06.945Z,94447.22
2023-04-15T12:29:35.509Z,94449.03
2023-04-15T12:32:17.988Z,94459.53
2023-04-15T12:34:50.585Z,94463.16
2023-04-15T12:37:17.723Z,94461.38
2023-04-15T12:39:46.005Z,94470.81
2023-04-15T12:42:17.749Z,94471.72
2023-04-15T12:44:45.673Z,94476.97
2023-04-15T12:47:13.176Z,94487.28
2023-04-15T12:49:41.017Z,94494.84
2023-04-15T12:52:07.877Z,94488.28
2023-04-15T12:54:34.754Z,94499.03
2023-04-15T12:57:07.298Z,94512.91
2023-04-15T12:59:34.776Z,94505.09
2023-04-15T13:02:02.863Z,94518.19
2023-04-15T13:04:31.091Z,94520.50
2023-04-15T13:06:58.160Z,94516.22
2023-04-15T13:09:28.572Z,94525.78
2023-04-15T13:11:56.204Z,94532.38
2023-04-15T13:14:22.708Z,94535.25
2023-04-15T13:16:49.289Z,94534.38
2023-04-15T13:19:15.909Z,94539.38
2023-04-15T13:21:42.890Z,94547.69
2023-04-15T13:24:09.771Z,94552.31
2023-04-15T13:26:36.423Z,94559.75
2023-04-15T13:29:02.964Z,94563.97
2023-04-15T13:31:29.611Z,94565.06
2023-04-15T13:33:57.443Z,94564.75
2023-04-15T13:36:24.317Z,94578.09
2023-04-15T13:38:51.646Z,94573.56
2023-04-15T13:41:18.641Z,94585.25
2023-04-15T13:43:45.173Z,94580.84
2023-04-15T13:46:12.047Z,94581.75
2023-04-15T13:48:38.772Z,94577.81
2023-04-15T13:51:05.708Z,94594.56
2023-04-15T13:53:38.319Z,94599.63
2023-04-15T13:56:07.506Z,94595.88
2023-04-15T13:58:34.317Z,94600.88
2023-04-15T14:01:02.552Z,94604.34
2023-04-15T14:03:30.856Z,94597.91
2023-04-15T14:05:58.604Z,94610.78
2023-04-15T14:08:25.751Z,94614.78
2023-04-15T14:10:52.405Z,94616.91
2023-04-15T14:13:19.743Z,94621.25
2023-04-15T14:15:47.494Z,94614.66
2023-04-15T14:18:14.080Z,94606.81
2023-04-15T14:20:40.663Z,94600.44
2023-04-15T14:23:07.482Z,94609.19
2023-04-15T14:25:34.376Z,94617.53
2023-04-15T14:28:02.415Z,94614.69
2023-04-15T14:30:28.976Z,94625.84
2023-04-15T14:32:56.158Z,94638.75
2023-04-15T14:35:24.553Z,94634.84
2023-04-15T14:37:51.269Z,94632.50
2023-04-15T14:40:17.905Z,94644.94
2023-04-15T14:42:45.032Z,94645.13
2023-04-15T14:45:12.073Z,94653.25
2023-04-15T14:47:38.704Z,94663.72
2023-04-15T14:50:05.959Z,94667.22
2023-04-15T14:52:38.604Z,94674.91
2023-04-15T14:55:12.964Z,94676.13
2023-04-15T14:57:41.267Z,94677.47
2023-04-15T15:00:10.585Z,94681.97
2023-04-15T15:02:40.216Z,94685.72
2023-04-15T15:05:08.302Z,94682.03
2023-04-15T15:07:37.400Z,94691.75
2023-04-15T15:10:05.079Z,94707.19
2023-04-15T15:12:32.950Z,94712.50
2023-04-15T15:15:00.537Z,94713.34
2023-04-15T15:17:28.259Z,94694.03
2023-04-15T15:19:55.235Z,94712.97
2023-04-15T15:22:21.868Z,94716.25
2023-04-15T15:24:48.511Z,94713.94
2023-04-15T15:27:15.140Z,94719.91
2023-04-15T15:29:41.777Z,94728.13
2023-04-15T15:32:08.327Z,94730.72
2023-04-15T15:34:38.299Z,94732.88
2023-04-15T15:37:05.507Z,94740.78
2023-04-15T15:39:32.076Z,94744.28
2023-04-15T15:41:58.601Z,94744.34
2023-04-15T15:44:25.290Z,94741.94
2023-04-15T15:46:51.948Z,94746.88
2023-04-15T15:49:19.944Z,94741.69
2023-04-15T15:51:46.752Z,94748.25
2023-04-15T15:54:13.326Z,94758.03
2023-04-15T15:56:39.906Z,94716.94
2023-04-15T15:59:06.799Z,94763.78
2023-04-15T16:01:33.737Z,94760.50
2023-04-15T16:04:01.072Z,94764.91
2023-04-15T16:06:28.295Z,94764.22
2023-04-15T16:08:55.078Z,94766.06
2023-04-15T16:11:21.627Z,94760.94
2023-04-15T16:13:48.158Z,94772.75
2023-04-15T16:16:24.463Z,94774.31
2023-04-15T16:18:51.086Z,94771.16
2023-04-15T16:21:17.824Z,94775.91
2023-04-15T16:23:44.496Z,94777.41
2023-04-15T16:26:11.049Z,94777.38
2023-04-15T16:28:45.311Z,94771.84
2023-04-15T16:31:12.319Z,94783.81
2023-04-15T16:33:39.101Z,94786.66
2023-04-15T16:36:06.311Z,94808.63
2023-04-15T16:38:32.874Z,94815.22
2023-04-15T16:41:08.619Z,94809.94
2023-04-15T16:43:35.215Z,94824.38
2023-04-15T16:46:01.857Z,94820.66
2023-04-15T16:48:29.669Z,94829.34
2023-04-15T16:50:57.177Z,94826.81
2023-04-15T16:53:24.065Z,94831.91
2023-04-15T16:55:51.182Z,94838.72
2023-04-15T16:58:17.813Z,94852.00
2023-04-15T17:00:44.677Z,94849.13
2023-04-15T17:03:11.549Z,94846.34
2023-04-15T17:05:38.330Z,94839.47
2023-04-15T17:08:05.947Z,94842.03
2023-04-15T17:10:32.552Z,94858.72
2023-04-15T17:12:59.286Z,94863.47
2023-04-15T17:15:27.261Z,94877.03
2023-04-15T17:17:54.391Z,94884.63
2023-04-15T17:20:21.872Z,94888.44
2023-04-15T17:22:49.271Z,94892.69
2023-04-15T17:25:16.003Z,94903.28
2023-04-15T17:27:42.720Z,94906.28
2023-04-15T17:30:09.691Z,94908.63
2023-04-15T17:32:36.700Z,94917.28
2023-04-15T17:35:11.179Z,94922.81
2023-04-15T17:37:38.012Z,94922.63
2023-04-15T17:40:08.015Z,94921.81
2023-04-15T17:42:35.305Z,94925.22
2023-04-15T17:45:01.872Z,94933.41
2023-04-15T17:47:29.943Z,94938.06
2023-04-15T17:49:58.930Z,94941.66
2023-04-15T17:52:25.560Z,94947.59
2023-04-15T17:54:52.125Z,94943.44
2023-04-15T17:57:18.838Z,94946.22
2023-04-15T17:59:47.518Z,94946.31
2023-04-15T18:02:14.963Z,94948.59
2023-04-15T18:04:41.830Z,94945.72
2023-04-15T18:07:08.778Z,94951.44
2023-04-15T18:09:36.130Z,94959.38
2023-04-15T18:12:04.675Z,94963.59
2023-04-15T18:14:34.669Z,94960.19
2023-04-15T18:17:05.163Z,94967.75
2023-04-15T18:19:32.099Z,94969.28
2023-04-15T18:22:00.284Z,94980.94
2023-04-15T18:24:27.523Z,94961.41
2023-04-15T18:26:54.078Z,94988.06
2023-04-15T18:29:20.743Z,94988.03
2023-04-15T18:31:47.501Z,94997.84
2023-04-15T18:34:14.067Z,95001.59
2023-04-15T18:36:40.771Z,95008.38
2023-04-15T18:39:07.566Z,95016.63
2023-04-15T18:41:34.486Z,95016.63
2023-04-15T18:44:01.124Z,95023.03
2023-04-15T18:46:28.275Z,95025.66
2023-04-15T18:48:54.979Z,95018.84
2023-04-15T18:51:21.648Z,95024.06
2023-04-15T18:53:48.322Z,95020.63
2023-04-15T18:56:14.978Z,95026.28
2023-04-15T18:59:22.935Z,95034.50
2023-04-15T19:01:28.915Z,95045.13
2023-04-15T19:03:55.537Z,95044.31
2023-04-15T19:06:22.433Z,95059.38
2023-04-15T19:08:49.152Z,95061.63
2023-04-15T19:11:15.862Z,95063.84
2023-04-15T19:13:42.425Z,95061.56
2023-04-15T19:16:09.042Z,95063.06
2023-04-15T19:18:35.691Z,95071.41
2023-04-15T19:21:03.113Z,95067.69
2023-04-15T19:23:31.452Z,95072.19
2023-04-15T19:25:58.881Z,95089.47
2023-04-15T19:28:28.180Z,95085.78
2023-04-15T19:30:55.158Z,95083.47
2023-04-15T19:33:21.815Z,95086.78
2023-04-15T19:35:49.925Z,95086.41
2023-04-15T19:38:17.085Z,95097.63
2023-04-15T19:40:43.886Z,95096.97
2023-04-15T19:43:10.443Z,95096.97
2023-04-15T19:45:37.200Z,95103.34
2023-04-15T19:48:06.045Z,95111.63
2023-04-15T19:50:32.840Z,95098.41
2023-04-15T19:52:59.427Z,95105.97
2023-04-15T19:55:26.090Z,95106.78
2023-04-15T19:57:52.604Z,95118.78
2023-04-15T20:00:19.141Z,95118.78
2023-04-15T20:02:45.758Z,95113.13
2023-04-15T20:05:13.833Z,95118.81
2023-04-15T20:07:42.613Z,95115.06
2023-04-15T20:10:14.008Z,95115.09
2023-04-15T20:12:50.242Z,95120.69
2023-04-15T20:15:19.199Z,95118.38
2023-04-15T20:17:45.786Z,95113.56
2023-04-15T20:20:12.483Z,95115.84
2023-04-15T20:22:39.031Z,95116.56
2023-04-15T20:25:06.087Z,95119.66
2023-04-15T20:27:32.619Z,95110.28
2023-04-15T20:29:59.278Z,95128.69
2023-04-15T20:32:26.986Z,95127.19
2023-04-15T20:34:53.825Z,95138.47
2023-04-15T20:37:20.558Z,95142.59
2023-04-15T20:39:47.202Z,95131.69
2023-04-15T20:42:13.745Z,95143.59
2023-04-15T20:44:40.447Z,95147.44
2023-04-15T20:47:07.740Z,95143.72
2023-04-15T20:49:38.560Z,95144.38
2023-04-15T20:52:06.512Z,95141.28
2023-04-15T20:54:33.244Z,95146.47
2023-04-15T20:57:00.030Z,95146.06
2023-04-15T20:59:27.008Z,95155.53
2023-04-15T21:01:54.168Z,95165.31
2023-04-15T21:04:22.098Z,95157.38
2023-04-15T21:06:48.734Z,95167.50
2023-04-15T21:09:15.289Z,95168.44
2023-04-15T21:11:59.789Z,95166.84
2023-04-15T21:14:28.070Z,95166.38
2023-04-15T21:16:54.714Z,95162.16
2023-04-15T21:19:21.283Z,95166.97
2023-04-15T21:21:47.833Z,95155.97
2023-04-15T21:24:14.396Z,95163.16
2023-04-15T21:26:41.082Z,95165.00
2023-04-15T21:29:10.393Z,95169.59
2023-04-15T21:31:37.859Z,95174.19
2023-04-15T21:34:04.517Z,95168.09
2023-04-15T21:36:31.761Z,95185.06
2023-04-15T21:38:58.355Z,95183.84
2023-04-15T21:41:25.188Z,95179.34
2023-04-15T21:43:51.812Z,95192.88
2023-04-15T21:46:23.469Z,95185.28
2023-04-15T21:48:53.585Z,95190.22
2023-04-15T21:51:20.388Z,95179.31
2023-04-15T21:53:46.998Z,95192.25
2023-04-15T21:56:13.528Z,95190.56
2023-04-15T21:58:40.286Z,95200.38
2023-04-15T22:01:06.878Z,95195.56
2023-04-15T22:03:35.059Z,95195.75
2023-04-15T22:06:04.918Z,95183.72
2023-04-15T22:08:41.348Z,95191.47
2023-04-15T22:11:20.906Z,95187.81
2023-04-15T22:13:47.514Z,95193.25
2023-04-15T22:16:14.080Z,95190.03
2023-04-15T22:18:40.609Z,95179.19
2023-04-15T22:21:07.956Z,95188.41
2023-04-15T22:23:34.497Z,95198.41
2023-04-15T22:26:01.043Z,95200.06
2023-04-15T22:28:27.559Z,95193.69
2023-04-15T22:30:54.707Z,95203.50
2023-04-15T22:33:21.365Z,95203.88
2023-04-15T22:35:47.972Z,95215.28
2023-04-15T22:38:14.762Z,95212.13
2023-04-15T22:40:41.554Z,95212.88
2023-04-15T22:43:08.155Z,95212.75
2023-04-15T22:45:34.690Z,95213.56
2023-04-15T22:48:02.550Z,95218.34
2023-04-15T22:50:29.207Z,95218.31
2023-04-15T22:52:55.780Z,95220.19
2023-04-15T22:55:22.537Z,95209.91
2023-04-15T22:57:49.042Z,95220.53
2023-04-15T23:00:15.614Z,95208.50
2023-04-15T23:02:42.270Z,95229.56
2023-04-15T23:05:12.749Z,95221.28
2023-04-15T23:07:39.818Z,95218.94
2023-04-15T23:10:08.114Z,95223.19
2023-04-15T23:12:34.686Z,95219.81
2023-04-15T23:15:01.207Z,95222.78
2023-04-15T23:17:27.795Z,95234.13
2023-04-15T23:19:54.398Z,95230.38
2023-04-15T23:22:21.046Z,95231.16
2023-04-15T23:24:47.665Z,95229.63
2023-04-15T23:27:14.303Z,95233.41
2023-04-15T23:29:40.894Z,95237.94
2023-04-15T23:32:07.484Z,95225.00
2023-04-15T23:34:34.067Z,95240.81
2023-04-15T23:37:00.979Z,95236.28
2023-04-15T23:39:27.668Z,95240.03
2023-04-15T23:41:54.388Z,95240.78
2023-04-15T23:44:20.926Z,95239.34
2023-04-15T23:46:47.634Z,95234.09
2023-04-15T23:49:14.358Z,95240.44
2023-04-15T23:51:41.269Z,95224.19
2023-04-15T23:54:07.809Z,95233.31
2023-04-15T23:56:34.434Z,95220.03
2023-04-15T23:59:01.015Z,95233.47
